Gothenburg, Nebraska
Current Conditions -  °F | °C
As of 8:15 PM on Monday 22 Dec 2014 (Local Time) from KLXN Reporting Station
Overcast Overcast  
Wind Chill: 29°   Ceiling: 5500
Heat Index: 37°   Visibility: 10mi
Dew Point: 33°   Wind: 12mph
Humidity: 88%   Direction: 300°WNW
Pressure: 29.57"   Gusts: 18mph
Location:  40.93°N, 100.16°W
Report Text: KLXN 230215Z AUTO 30010G16KT 10SM SCT043 BKN055 OVC095 03/01 A2957 RMK AO2 T00250007
Loading
Personal Weather Stations






























Interactive Weather Map New forecast layout! Learn more

10-Day Weather Forecast

Advertisements
Track Severe Weather on mobile